Rechercher aéroport 
image banner adimage banner adimage banner ad
image banner ad

49CN - Rancho Tehama

Situé à Red Bluff, United States

ICAO - 49CN, IATA -

Données fournies par Airmate  

Information générale

Coordonnées: N40°0'58" W122°23'24"
Élévation : 550 feet MSL.
Variation magnétique : 17° East
Voir autres Aéroports à California

Données opérationnelles

Special qualification required
Heure actuelle UTC:
Heure actuelle locale:
Météo à : KRBL - Red Bluff Muni ( 19 km )
METAR: KRBL 300154Z AUTO 17011KT 10SM CLR 39/12 A2977 RMK AO2 SLP074 T03940122
TAF: KRBL 292350Z 3000/3024 16009KT P6SM SCT200 FM300500 VRB04KT P6SM SCT200 FM302200 16011G17KT P6SM FEW150
Voir NOTAMs / SUP AIP / TFR affectant cet aéroport [VIEW]
Fréquences de communication: [VIEW]

Pistes:

Identifiant RWYQFULongueur (ft)Largeur (ft)SurfaceLDA (ft)
09375040OTHER
27375040OTHER

Coordonnées de l'aéroport

Adresse: Red Bluff United States

Vue satellite de 49CN